sensor_id;sensor_type;location;lat;lon;timestamp;noise_LAeq;noise_LA_min;noise_LA_max;noise_LA01;noise_LA95
77133;Laerm;26708;50.304;19.028;2023-04-05T00:01:57;41.11;37.62;45.99;;
77133;Laerm;26708;50.304;19.028;2023-04-05T00:04:03;41.56;37.49;48.41;;
77133;Laerm;26708;50.304;19.028;2023-04-05T00:06:12;41.03;38.04;45.93;;
77133;Laerm;26708;50.304;19.028;2023-04-05T00:08:17;41.14;37.92;49.80;;
77133;Laerm;26708;50.304;19.028;2023-04-05T00:10:24;41.58;38.02;52.16;;
77133;Laerm;26708;50.304;19.028;2023-04-05T00:12:29;41.56;38.21;47.50;;
77133;Laerm;26708;50.304;19.028;2023-04-05T00:14:34;40.83;37.69;44.86;;
77133;Laerm;26708;50.304;19.028;2023-04-05T00:16:38;41.34;37.90;47.78;;
77133;Laerm;26708;50.304;19.028;2023-04-05T00:18:44;52.17;37.87;72.46;;
77133;Laerm;26708;50.304;19.028;2023-04-05T00:20:53;42.60;38.29;53.52;;
77133;Laerm;26708;50.304;19.028;2023-04-05T00:23:00;41.22;38.15;46.16;;
77133;Laerm;26708;50.304;19.028;2023-04-05T00:25:09;41.02;38.06;45.30;;
77133;Laerm;26708;50.304;19.028;2023-04-05T00:27:13;42.32;38.09;48.95;;
77133;Laerm;26708;50.304;19.028;2023-04-05T00:29:18;41.22;38.03;46.76;;
77133;Laerm;26708;50.304;19.028;2023-04-05T00:31:23;40.94;38.01;47.08;;
77133;Laerm;26708;50.304;19.028;2023-04-05T00:33:28;40.98;37.78;46.22;;
77133;Laerm;26708;50.304;19.028;2023-04-05T00:35:32;40.88;37.05;45.40;;
77133;Laerm;26708;50.304;19.028;2023-04-05T00:37:38;42.65;37.34;57.78;;
77133;Laerm;26708;50.304;19.028;2023-04-05T00:39:45;41.82;37.96;57.18;;
77133;Laerm;26708;50.304;19.028;2023-04-05T00:41:49;41.19;37.75;46.04;;
77133;Laerm;26708;50.304;19.028;2023-04-05T00:43:55;40.97;38.04;45.32;;
77133;Laerm;26708;50.304;19.028;2023-04-05T00:46:01;43.16;38.02;55.60;;
77133;Laerm;26708;50.304;19.028;2023-04-05T00:48:05;40.82;37.60;45.59;;
77133;Laerm;26708;50.304;19.028;2023-04-05T00:50:11;41.95;37.68;51.31;;
77133;Laerm;26708;50.304;19.028;2023-04-05T00:52:17;41.53;38.25;46.22;;
77133;Laerm;26708;50.304;19.028;2023-04-05T00:54:24;41.90;37.69;49.04;;
77133;Laerm;26708;50.304;19.028;2023-04-05T00:56:33;43.13;38.10;53.07;;
77133;Laerm;26708;50.304;19.028;2023-04-05T00:58:38;41.36;38.00;46.30;;
77133;Laerm;26708;50.304;19.028;2023-04-05T01:00:57;41.50;37.93;46.85;;
77133;Laerm;26708;50.304;19.028;2023-04-05T01:03:06;42.18;37.20;47.37;;
77133;Laerm;26708;50.304;19.028;2023-04-05T01:05:33;45.49;38.35;62.70;;
77133;Laerm;26708;50.304;19.028;2023-04-05T01:07:47;41.51;38.05;47.66;;
77133;Laerm;26708;50.304;19.028;2023-04-05T01:09:58;42.56;37.52;51.07;;
77133;Laerm;26708;50.304;19.028;2023-04-05T01:12:11;41.19;37.94;46.20;;
77133;Laerm;26708;50.304;19.028;2023-04-05T01:14:19;48.87;38.38;64.74;;
77133;Laerm;26708;50.304;19.028;2023-04-05T01:16:25;42.54;38.34;50.91;;
77133;Laerm;26708;50.304;19.028;2023-04-05T01:18:29;41.38;38.36;48.73;;
77133;Laerm;26708;50.304;19.028;2023-04-05T01:20:45;41.38;37.75;47.93;;
77133;Laerm;26708;50.304;19.028;2023-04-05T01:23:20;40.88;37.97;45.13;;
77133;Laerm;26708;50.304;19.028;2023-04-05T01:31:26;40.86;37.55;46.30;;
77133;Laerm;26708;50.304;19.028;2023-04-05T01:33:43;40.92;37.51;45.82;;
77133;Laerm;26708;50.304;19.028;2023-04-05T01:35:57;41.28;37.84;48.08;;
77133;Laerm;26708;50.304;19.028;2023-04-05T01:38:06;48.82;37.84;67.03;;
77133;Laerm;26708;50.304;19.028;2023-04-05T01:40:14;41.06;37.76;45.40;;
77133;Laerm;26708;50.304;19.028;2023-04-05T01:42:23;41.12;37.38;45.35;;
77133;Laerm;26708;50.304;19.028;2023-04-05T01:44:28;41.22;37.59;46.92;;
77133;Laerm;26708;50.304;19.028;2023-04-05T01:46:37;41.65;38.20;47.31;;
77133;Laerm;26708;50.304;19.028;2023-04-05T01:48:41;40.97;38.00;45.60;;
77133;Laerm;26708;50.304;19.028;2023-04-05T01:50:46;42.74;37.72;55.30;;
77133;Laerm;26708;50.304;19.028;2023-04-05T01:52:51;41.53;37.84;46.85;;
77133;Laerm;26708;50.304;19.028;2023-04-05T01:54:55;41.39;38.21;45.77;;
77133;Laerm;26708;50.304;19.028;2023-04-05T01:57:00;40.72;37.89;44.87;;
77133;Laerm;26708;50.304;19.028;2023-04-05T01:59:05;41.53;37.46;46.92;;
77133;Laerm;26708;50.304;19.028;2023-04-05T02:01:10;41.09;37.91;48.34;;
77133;Laerm;26708;50.304;19.028;2023-04-05T02:03:17;41.06;37.58;46.90;;
77133;Laerm;26708;50.304;19.028;2023-04-05T02:05:22;40.88;37.86;44.82;;
77133;Laerm;26708;50.304;19.028;2023-04-05T02:07:26;41.79;37.84;51.20;;
77133;Laerm;26708;50.304;19.028;2023-04-05T02:09:31;41.23;38.16;46.21;;
77133;Laerm;26708;50.304;19.028;2023-04-05T02:11:36;51.98;38.22;67.89;;
77133;Laerm;26708;50.304;19.028;2023-04-05T02:13:41;42.23;38.05;50.55;;
77133;Laerm;26708;50.304;19.028;2023-04-05T02:15:47;49.74;37.81;65.69;;
77133;Laerm;26708;50.304;19.028;2023-04-05T02:17:53;49.87;37.84;68.98;;
77133;Laerm;26708;50.304;19.028;2023-04-05T02:20:00;42.28;37.63;53.25;;
77133;Laerm;26708;50.304;19.028;2023-04-05T02:22:07;41.22;38.16;46.00;;
77133;Laerm;26708;50.304;19.028;2023-04-05T02:24:10;42.06;38.38;54.47;;
77133;Laerm;26708;50.304;19.028;2023-04-05T02:26:15;53.53;38.70;72.75;;
77133;Laerm;26708;50.304;19.028;2023-04-05T02:28:19;41.09;37.61;45.85;;
77133;Laerm;26708;50.304;19.028;2023-04-05T02:30:25;41.71;37.87;48.39;;
77133;Laerm;26708;50.304;19.028;2023-04-05T02:32:29;51.46;38.84;69.64;;
77133;Laerm;26708;50.304;19.028;2023-04-05T02:34:37;42.24;37.89;50.74;;
77133;Laerm;26708;50.304;19.028;2023-04-05T02:36:45;42.38;38.28;52.40;;
77133;Laerm;26708;50.304;19.028;2023-04-05T02:38:49;43.05;38.90;50.14;;
77133;Laerm;26708;50.304;19.028;2023-04-05T02:40:54;41.93;38.32;47.61;;
77133;Laerm;26708;50.304;19.028;2023-04-05T02:42:59;44.38;38.76;53.20;;
77133;Laerm;26708;50.304;19.028;2023-04-05T02:45:05;46.07;38.85;56.57;;
77133;Laerm;26708;50.304;19.028;2023-04-05T02:47:10;42.97;38.48;51.45;;
77133;Laerm;26708;50.304;19.028;2023-04-05T02:49:21;53.77;38.36;70.73;;
77133;Laerm;26708;50.304;19.028;2023-04-05T02:51:25;42.07;38.51;50.34;;
77133;Laerm;26708;50.304;19.028;2023-04-05T02:53:34;43.39;37.76;51.49;;
77133;Laerm;26708;50.304;19.028;2023-04-05T02:55:51;50.78;38.57;70.35;;
77133;Laerm;26708;50.304;19.028;2023-04-05T02:57:59;51.00;39.09;69.23;;
77133;Laerm;26708;50.304;19.028;2023-04-05T03:00:16;47.07;39.19;59.66;;
77133;Laerm;26708;50.304;19.028;2023-04-05T03:02:22;45.39;38.58;55.05;;
77133;Laerm;26708;50.304;19.028;2023-04-05T03:04:28;44.02;38.33;55.15;;
77133;Laerm;26708;50.304;19.028;2023-04-05T03:06:36;44.07;38.77;57.51;;
77133;Laerm;26708;50.304;19.028;2023-04-05T03:08:54;47.71;39.26;63.08;;
77133;Laerm;26708;50.304;19.028;2023-04-05T03:11:00;44.59;38.42;58.33;;
77133;Laerm;26708;50.304;19.028;2023-04-05T03:13:04;48.48;38.74;64.36;;
77133;Laerm;26708;50.304;19.028;2023-04-05T03:15:10;45.74;38.74;57.18;;
77133;Laerm;26708;50.304;19.028;2023-04-05T03:17:18;47.58;39.54;61.69;;
77133;Laerm;26708;50.304;19.028;2023-04-05T03:19:32;45.51;39.07;60.96;;
77133;Laerm;26708;50.304;19.028;2023-04-05T03:21:47;47.64;39.23;62.53;;
77133;Laerm;26708;50.304;19.028;2023-04-05T03:24:06;50.45;38.70;69.07;;
77133;Laerm;26708;50.304;19.028;2023-04-05T03:26:15;58.17;41.17;75.67;;
77133;Laerm;26708;50.304;19.028;2023-04-05T03:28:25;52.74;40.41;68.54;;
77133;Laerm;26708;50.304;19.028;2023-04-05T03:30:36;45.57;39.67;55.31;;
77133;Laerm;26708;50.304;19.028;2023-04-05T03:32:50;45.81;39.34;58.88;;
77133;Laerm;26708;50.304;19.028;2023-04-05T03:35:10;51.47;40.58;67.34;;
77133;Laerm;26708;50.304;19.028;2023-04-05T03:37:19;51.19;42.01;67.66;;
77133;Laerm;26708;50.304;19.028;2023-04-05T03:39:37;52.62;42.47;67.97;;
77133;Laerm;26708;50.304;19.028;2023-04-05T03:41:42;47.37;40.79;58.39;;
77133;Laerm;26708;50.304;19.028;2023-04-05T03:43:48;45.97;40.45;53.15;;
77133;Laerm;26708;50.304;19.028;2023-04-05T03:45:55;45.79;39.84;58.55;;
77133;Laerm;26708;50.304;19.028;2023-04-05T03:48:04;46.09;39.66;59.23;;
77133;Laerm;26708;50.304;19.028;2023-04-05T03:50:09;45.58;39.55;58.47;;
77133;Laerm;26708;50.304;19.028;2023-04-05T03:52:14;45.03;39.29;56.95;;
77133;Laerm;26708;50.304;19.028;2023-04-05T03:54:20;58.57;39.88;78.92;;
77133;Laerm;26708;50.304;19.028;2023-04-05T03:56:32;51.82;39.93;68.99;;
77133;Laerm;26708;50.304;19.028;2023-04-05T03:58:46;52.54;40.45;66.58;;
77133;Laerm;26708;50.304;19.028;2023-04-05T04:00:54;47.16;40.75;61.88;;
77133;Laerm;26708;50.304;19.028;2023-04-05T04:02:59;44.27;38.89;54.26;;
77133;Laerm;26708;50.304;19.028;2023-04-05T04:05:05;53.28;39.34;72.54;;
77133;Laerm;26708;50.304;19.028;2023-04-05T04:07:11;50.82;39.63;68.10;;
77133;Laerm;26708;50.304;19.028;2023-04-05T04:09:16;45.53;39.89;52.01;;
77133;Laerm;26708;50.304;19.028;2023-04-05T04:11:23;54.35;41.00;69.89;;
77133;Laerm;26708;50.304;19.028;2023-04-05T04:13:31;54.20;40.55;69.31;;
77133;Laerm;26708;50.304;19.028;2023-04-05T04:15:45;55.45;41.94;68.50;;
77133;Laerm;26708;50.304;19.028;2023-04-05T04:17:58;56.02;42.69;69.36;;
77133;Laerm;26708;50.304;19.028;2023-04-05T04:20:26;54.64;41.80;70.30;;
77133;Laerm;26708;50.304;19.028;2023-04-05T04:22:56;57.83;41.43;72.02;;
77133;Laerm;26708;50.304;19.028;2023-04-05T04:25:23;54.77;40.07;66.50;;
77133;Laerm;26708;50.304;19.028;2023-04-05T04:28:12;52.52;42.29;65.85;;
77133;Laerm;26708;50.304;19.028;2023-04-05T04:30:25;52.66;41.89;66.91;;
77133;Laerm;26708;50.304;19.028;2023-04-05T04:32:43;56.44;42.89;70.37;;
77133;Laerm;26708;50.304;19.028;2023-04-05T04:35:08;58.36;43.97;78.02;;
77133;Laerm;26708;50.304;19.028;2023-04-05T04:37:36;56.14;42.42;69.51;;
77133;Laerm;26708;50.304;19.028;2023-04-05T04:42:54;54.56;42.06;66.46;;
77133;Laerm;26708;50.304;19.028;2023-04-05T04:45:29;56.63;43.49;68.95;;
77133;Laerm;26708;50.304;19.028;2023-04-05T04:47:55;56.90;47.05;72.27;;
77133;Laerm;26708;50.304;19.028;2023-04-05T04:50:25;54.38;43.21;70.47;;
77133;Laerm;26708;50.304;19.028;2023-04-05T04:52:32;56.44;43.31;76.64;;
77133;Laerm;26708;50.304;19.028;2023-04-05T04:54:37;54.94;42.11;65.48;;
77133;Laerm;26708;50.304;19.028;2023-04-05T04:56:42;56.23;43.25;70.29;;
77133;Laerm;26708;50.304;19.028;2023-04-05T04:58:53;58.49;42.05;71.88;;
77133;Laerm;26708;50.304;19.028;2023-04-05T05:00:57;56.67;41.40;69.32;;
77133;Laerm;26708;50.304;19.028;2023-04-05T05:03:02;56.89;48.50;69.90;;
77133;Laerm;26708;50.304;19.028;2023-04-05T05:05:10;55.41;43.88;67.94;;
77133;Laerm;26708;50.304;19.028;2023-04-05T05:07:14;54.95;41.91;69.45;;
77133;Laerm;26708;50.304;19.028;2023-04-05T05:09:19;57.62;42.56;70.38;;
77133;Laerm;26708;50.304;19.028;2023-04-05T05:11:28;52.44;41.38;66.38;;
77133;Laerm;26708;50.304;19.028;2023-04-05T05:13:33;56.56;42.48;69.11;;
77133;Laerm;26708;50.304;19.028;2023-04-05T05:15:40;51.12;41.95;66.38;;
77133;Laerm;26708;50.304;19.028;2023-04-05T05:17:46;59.75;43.27;71.65;;
77133;Laerm;26708;50.304;19.028;2023-04-05T05:19:53;57.75;42.77;69.27;;
77133;Laerm;26708;50.304;19.028;2023-04-05T05:22:00;50.11;42.91;62.10;;
77133;Laerm;26708;50.304;19.028;2023-04-05T05:24:06;58.68;41.93;71.63;;
77133;Laerm;26708;50.304;19.028;2023-04-05T05:26:11;57.31;44.12;70.85;;
77133;Laerm;26708;50.304;19.028;2023-04-05T05:28:15;55.62;42.73;67.89;;
77133;Laerm;26708;50.304;19.028;2023-04-05T05:30:21;58.61;43.38;67.94;;
77133;Laerm;26708;50.304;19.028;2023-04-05T05:32:29;55.46;46.79;68.49;;
77133;Laerm;26708;50.304;19.028;2023-04-05T05:34:33;59.19;41.91;72.22;;
77133;Laerm;26708;50.304;19.028;2023-04-05T05:36:38;59.75;41.59;74.62;;
77133;Laerm;26708;50.304;19.028;2023-04-05T05:38:43;56.60;44.11;70.54;;
77133;Laerm;26708;50.304;19.028;2023-04-05T05:40:47;55.85;42.58;72.67;;
77133;Laerm;26708;50.304;19.028;2023-04-05T05:42:53;59.27;44.74;74.09;;
77133;Laerm;26708;50.304;19.028;2023-04-05T05:45:00;52.83;41.41;67.28;;
77133;Laerm;26708;50.304;19.028;2023-04-05T05:47:04;56.87;42.24;70.23;;
77133;Laerm;26708;50.304;19.028;2023-04-05T05:49:13;59.36;43.37;70.60;;
77133;Laerm;26708;50.304;19.028;2023-04-05T05:51:17;61.42;45.76;71.94;;
77133;Laerm;26708;50.304;19.028;2023-04-05T05:53:22;56.63;42.63;69.63;;
77133;Laerm;26708;50.304;19.028;2023-04-05T05:55:27;58.18;43.51;71.03;;
77133;Laerm;26708;50.304;19.028;2023-04-05T05:57:31;57.86;44.25;72.42;;
77133;Laerm;26708;50.304;19.028;2023-04-05T05:59:37;57.68;44.86;68.67;;
77133;Laerm;26708;50.304;19.028;2023-04-05T06:01:42;58.90;42.86;69.25;;
77133;Laerm;26708;50.304;19.028;2023-04-05T06:03:47;55.10;43.10;68.55;;
77133;Laerm;26708;50.304;19.028;2023-04-05T06:05:56;61.31;43.07;75.06;;
77133;Laerm;26708;50.304;19.028;2023-04-05T06:08:04;60.15;43.92;71.13;;
77133;Laerm;26708;50.304;19.028;2023-04-05T06:10:10;60.25;43.04;69.27;;
77133;Laerm;26708;50.304;19.028;2023-04-05T06:12:14;57.08;41.81;71.94;;
77133;Laerm;26708;50.304;19.028;2023-04-05T06:14:20;57.32;48.43;71.98;;
77133;Laerm;26708;50.304;19.028;2023-04-05T06:16:24;56.75;46.68;67.85;;
77133;Laerm;26708;50.304;19.028;2023-04-05T06:18:29;58.03;42.03;71.49;;
77133;Laerm;26708;50.304;19.028;2023-04-05T06:20:35;55.99;42.80;67.70;;
77133;Laerm;26708;50.304;19.028;2023-04-05T06:22:44;56.00;41.82;68.33;;
77133;Laerm;26708;50.304;19.028;2023-04-05T06:24:48;53.47;39.98;67.14;;
77133;Laerm;26708;50.304;19.028;2023-04-05T06:26:53;56.15;43.63;68.44;;
77133;Laerm;26708;50.304;19.028;2023-04-05T06:28:58;59.85;43.06;72.86;;
77133;Laerm;26708;50.304;19.028;2023-04-05T06:31:02;58.46;43.01;72.16;;
77133;Laerm;26708;50.304;19.028;2023-04-05T06:33:08;56.26;43.31;71.11;;
77133;Laerm;26708;50.304;19.028;2023-04-05T06:35:12;57.32;42.28;69.37;;
77133;Laerm;26708;50.304;19.028;2023-04-05T06:37:17;57.69;43.35;68.33;;
77133;Laerm;26708;50.304;19.028;2023-04-05T06:39:25;58.06;42.68;72.75;;
77133;Laerm;26708;50.304;19.028;2023-04-05T06:41:29;51.35;42.48;64.37;;
77133;Laerm;26708;50.304;19.028;2023-04-05T06:43:34;58.82;42.57;72.13;;
77133;Laerm;26708;50.304;19.028;2023-04-05T06:45:39;59.33;43.32;76.69;;
77133;Laerm;26708;50.304;19.028;2023-04-05T06:47:43;57.17;40.96;70.24;;
77133;Laerm;26708;50.304;19.028;2023-04-05T06:49:48;57.50;42.72;70.68;;
77133;Laerm;26708;50.304;19.028;2023-04-05T06:51:53;57.47;42.82;70.35;;
77133;Laerm;26708;50.304;19.028;2023-04-05T06:53:57;60.62;43.62;71.44;;
77133;Laerm;26708;50.304;19.028;2023-04-05T06:56:05;56.76;41.93;74.90;;
77133;Laerm;26708;50.304;19.028;2023-04-05T06:58:11;55.82;41.95;67.55;;
77133;Laerm;26708;50.304;19.028;2023-04-05T07:00:16;58.37;42.48;67.97;;
77133;Laerm;26708;50.304;19.028;2023-04-05T07:02:21;57.05;44.12;70.05;;
77133;Laerm;26708;50.304;19.028;2023-04-05T07:04:27;59.11;41.89;71.05;;
77133;Laerm;26708;50.304;19.028;2023-04-05T07:06:37;57.63;43.36;70.55;;
77133;Laerm;26708;50.304;19.028;2023-04-05T07:08:41;57.31;42.58;69.21;;
77133;Laerm;26708;50.304;19.028;2023-04-05T07:10:47;61.17;43.23;77.12;;
77133;Laerm;26708;50.304;19.028;2023-04-05T07:12:54;60.55;41.84;76.54;;
77133;Laerm;26708;50.304;19.028;2023-04-05T07:14:59;64.23;42.70;85.15;;
77133;Laerm;26708;50.304;19.028;2023-04-05T07:17:05;55.39;41.28;69.96;;
77133;Laerm;26708;50.304;19.028;2023-04-05T07:19:10;57.71;42.91;71.90;;
77133;Laerm;26708;50.304;19.028;2023-04-05T07:21:15;55.02;41.53;67.63;;
77133;Laerm;26708;50.304;19.028;2023-04-05T07:23:21;51.91;41.23;63.74;;
77133;Laerm;26708;50.304;19.028;2023-04-05T07:25:25;52.99;42.93;65.40;;
77133;Laerm;26708;50.304;19.028;2023-04-05T07:27:30;59.11;41.89;76.36;;
77133;Laerm;26708;50.304;19.028;2023-04-05T07:29:39;55.81;42.76;68.71;;
77133;Laerm;26708;50.304;19.028;2023-04-05T07:31:44;56.49;42.81;70.48;;
77133;Laerm;26708;50.304;19.028;2023-04-05T07:33:49;53.95;42.56;67.94;;
77133;Laerm;26708;50.304;19.028;2023-04-05T07:35:55;58.38;42.33;75.37;;
77133;Laerm;26708;50.304;19.028;2023-04-05T07:38:00;56.86;42.74;70.04;;
77133;Laerm;26708;50.304;19.028;2023-04-05T07:40:06;59.51;43.99;76.67;;
77133;Laerm;26708;50.304;19.028;2023-04-05T07:42:12;59.06;44.29;73.56;;
77133;Laerm;26708;50.304;19.028;2023-04-05T07:44:18;55.30;41.69;72.19;;
77133;Laerm;26708;50.304;19.028;2023-04-05T07:46:25;54.06;41.35;65.94;;
77133;Laerm;26708;50.304;19.028;2023-04-05T07:48:31;56.70;43.02;69.43;;
77133;Laerm;26708;50.304;19.028;2023-04-05T07:50:36;58.32;44.20;71.15;;
77133;Laerm;26708;50.304;19.028;2023-04-05T07:52:41;56.19;41.80;66.59;;
77133;Laerm;26708;50.304;19.028;2023-04-05T07:54:47;52.52;41.59;67.72;;
77133;Laerm;26708;50.304;19.028;2023-04-05T07:56:52;59.05;43.19;71.14;;
77133;Laerm;26708;50.304;19.028;2023-04-05T07:58:58;57.27;41.96;68.02;;
77133;Laerm;26708;50.304;19.028;2023-04-05T08:01:04;58.73;44.38;70.52;;
77133;Laerm;26708;50.304;19.028;2023-04-05T08:03:11;57.60;42.66;68.08;;
77133;Laerm;26708;50.304;19.028;2023-04-05T08:05:16;55.53;42.37;67.32;;
77133;Laerm;26708;50.304;19.028;2023-04-05T08:07:22;57.02;41.70;69.40;;
77133;Laerm;26708;50.304;19.028;2023-04-05T08:09:27;56.70;42.87;69.13;;
77133;Laerm;26708;50.304;19.028;2023-04-05T08:11:31;59.36;42.88;75.27;;
77133;Laerm;26708;50.304;19.028;2023-04-05T08:13:38;57.72;42.29;69.48;;
77133;Laerm;26708;50.304;19.028;2023-04-05T08:15:43;57.72;41.52;71.27;;
77133;Laerm;26708;50.304;19.028;2023-04-05T08:17:47;56.27;42.94;72.91;;
77133;Laerm;26708;50.304;19.028;2023-04-05T08:19:55;58.60;43.17;71.29;;
77133;Laerm;26708;50.304;19.028;2023-04-05T08:22:00;57.68;41.29;70.07;;
77133;Laerm;26708;50.304;19.028;2023-04-05T08:24:05;57.07;42.85;70.70;;
77133;Laerm;26708;50.304;19.028;2023-04-05T08:26:10;51.61;42.09;63.49;;
77133;Laerm;26708;50.304;19.028;2023-04-05T08:28:15;57.78;43.30;69.09;;
77133;Laerm;26708;50.304;19.028;2023-04-05T08:30:19;60.12;44.03;72.27;;
77133;Laerm;26708;50.304;19.028;2023-04-05T08:32:25;59.23;41.95;72.96;;
77133;Laerm;26708;50.304;19.028;2023-04-05T08:34:29;57.94;43.56;67.56;;
77133;Laerm;26708;50.304;19.028;2023-04-05T08:36:36;58.18;44.33;70.47;;
77133;Laerm;26708;50.304;19.028;2023-04-05T08:38:42;56.82;42.64;67.89;;
77133;Laerm;26708;50.304;19.028;2023-04-05T08:40:47;55.95;41.54;71.17;;
77133;Laerm;26708;50.304;19.028;2023-04-05T08:43:03;57.33;43.42;77.84;;
77133;Laerm;26708;50.304;19.028;2023-04-05T08:45:16;57.30;43.96;67.05;;
77133;Laerm;26708;50.304;19.028;2023-04-05T08:47:22;56.34;42.94;69.37;;
77133;Laerm;26708;50.304;19.028;2023-04-05T08:49:27;58.97;43.29;69.28;;
77133;Laerm;26708;50.304;19.028;2023-04-05T08:51:38;59.23;42.96;73.38;;
77133;Laerm;26708;50.304;19.028;2023-04-05T08:53:43;60.07;43.23;78.90;;
77133;Laerm;26708;50.304;19.028;2023-04-05T08:55:50;58.30;43.94;69.71;;
77133;Laerm;26708;50.304;19.028;2023-04-05T08:58:00;59.53;43.52;71.61;;
77133;Laerm;26708;50.304;19.028;2023-04-05T09:00:08;56.80;43.76;69.79;;
77133;Laerm;26708;50.304;19.028;2023-04-05T09:02:17;57.74;42.96;68.62;;
77133;Laerm;26708;50.304;19.028;2023-04-05T09:04:29;54.68;42.52;67.18;;
77133;Laerm;26708;50.304;19.028;2023-04-05T09:06:38;57.73;41.36;70.59;;
77133;Laerm;26708;50.304;19.028;2023-04-05T09:08:43;58.10;43.02;68.56;;
77133;Laerm;26708;50.304;19.028;2023-04-05T09:10:49;62.20;42.64;81.14;;
77133;Laerm;26708;50.304;19.028;2023-04-05T09:12:55;59.57;42.63;69.23;;
77133;Laerm;26708;50.304;19.028;2023-04-05T09:15:01;57.03;42.49;70.01;;
77133;Laerm;26708;50.304;19.028;2023-04-05T09:17:06;61.19;42.56;81.24;;
77133;Laerm;26708;50.304;19.028;2023-04-05T09:19:11;57.45;45.05;67.39;;
77133;Laerm;26708;50.304;19.028;2023-04-05T09:21:15;54.98;42.66;67.36;;
77133;Laerm;26708;50.304;19.028;2023-04-05T09:23:24;58.91;44.25;69.60;;
77133;Laerm;26708;50.304;19.028;2023-04-05T09:25:38;58.92;44.77;75.22;;
77133;Laerm;26708;50.304;19.028;2023-04-05T09:27:54;57.79;43.23;68.40;;
77133;Laerm;26708;50.304;19.028;2023-04-05T09:30:00;58.39;45.68;70.06;;
77133;Laerm;26708;50.304;19.028;2023-04-05T09:32:06;57.71;44.02;72.35;;
77133;Laerm;26708;50.304;19.028;2023-04-05T09:34:19;55.91;43.77;67.38;;
77133;Laerm;26708;50.304;19.028;2023-04-05T09:36:25;61.67;46.93;76.84;;
77133;Laerm;26708;50.304;19.028;2023-04-05T09:38:45;57.73;45.02;67.57;;
77133;Laerm;26708;50.304;19.028;2023-04-05T09:40:49;56.08;44.29;69.49;;
77133;Laerm;26708;50.304;19.028;2023-04-05T09:43:03;56.72;43.92;67.57;;
77133;Laerm;26708;50.304;19.028;2023-04-05T09:45:09;58.00;43.43;71.51;;
77133;Laerm;26708;50.304;19.028;2023-04-05T09:47:40;61.40;43.99;75.34;;
77133;Laerm;26708;50.304;19.028;2023-04-05T09:49:46;58.11;44.08;73.97;;
77133;Laerm;26708;50.304;19.028;2023-04-05T09:51:51;57.62;46.40;68.22;;
77133;Laerm;26708;50.304;19.028;2023-04-05T09:54:01;57.74;43.07;71.24;;
77133;Laerm;26708;50.304;19.028;2023-04-05T09:56:08;59.53;43.69;72.95;;
77133;Laerm;26708;50.304;19.028;2023-04-05T09:58:19;58.57;43.60;70.48;;
77133;Laerm;26708;50.304;19.028;2023-04-05T10:00:25;59.04;43.80;68.82;;
77133;Laerm;26708;50.304;19.028;2023-04-05T10:02:35;59.28;46.39;71.04;;
77133;Laerm;26708;50.304;19.028;2023-04-05T10:04:43;57.28;42.13;70.79;;
77133;Laerm;26708;50.304;19.028;2023-04-05T10:06:49;57.15;41.48;69.61;;
77133;Laerm;26708;50.304;19.028;2023-04-05T10:08:57;56.31;41.68;68.76;;
77133;Laerm;26708;50.304;19.028;2023-04-05T10:11:05;58.29;43.45;69.81;;
77133;Laerm;26708;50.304;19.028;2023-04-05T10:13:11;58.59;42.81;71.22;;
77133;Laerm;26708;50.304;19.028;2023-04-05T10:15:18;58.14;42.57;69.94;;
77133;Laerm;26708;50.304;19.028;2023-04-05T10:17:27;59.21;42.16;73.18;;
77133;Laerm;26708;50.304;19.028;2023-04-05T10:19:47;58.91;43.33;73.52;;
77133;Laerm;26708;50.304;19.028;2023-04-05T10:22:01;59.74;43.99;76.80;;
77133;Laerm;26708;50.304;19.028;2023-04-05T10:24:26;59.47;44.96;68.89;;
77133;Laerm;26708;50.304;19.028;2023-04-05T10:26:48;61.61;46.15;75.35;;
77133;Laerm;26708;50.304;19.028;2023-04-05T10:29:08;60.71;44.62;70.91;;
77133;Laerm;26708;50.304;19.028;2023-04-05T10:31:25;56.85;42.28;70.12;;
77133;Laerm;26708;50.304;19.028;2023-04-05T10:33:40;58.24;44.39;72.62;;
77133;Laerm;26708;50.304;19.028;2023-04-05T10:36:11;57.83;42.77;69.21;;
77133;Laerm;26708;50.304;19.028;2023-04-05T10:38:24;57.45;43.04;70.28;;
77133;Laerm;26708;50.304;19.028;2023-04-05T10:40:33;58.86;44.87;69.85;;
77133;Laerm;26708;50.304;19.028;2023-04-05T10:42:42;63.63;45.21;79.44;;
77133;Laerm;26708;50.304;19.028;2023-04-05T10:44:52;60.25;42.55;71.00;;
77133;Laerm;26708;50.304;19.028;2023-04-05T10:47:03;56.25;42.34;68.00;;
77133;Laerm;26708;50.304;19.028;2023-04-05T10:49:20;58.55;42.70;69.82;;
77133;Laerm;26708;50.304;19.028;2023-04-05T10:51:25;58.71;42.97;75.24;;
77133;Laerm;26708;50.304;19.028;2023-04-05T10:53:31;55.61;43.23;69.51;;
77133;Laerm;26708;50.304;19.028;2023-04-05T10:55:43;54.80;41.70;68.85;;
77133;Laerm;26708;50.304;19.028;2023-04-05T10:57:49;58.06;43.10;71.12;;
77133;Laerm;26708;50.304;19.028;2023-04-05T10:59:58;54.98;42.58;66.61;;
77133;Laerm;26708;50.304;19.028;2023-04-05T11:02:05;54.73;42.71;69.62;;
77133;Laerm;26708;50.304;19.028;2023-04-05T11:04:12;58.85;42.85;71.81;;
77133;Laerm;26708;50.304;19.028;2023-04-05T11:06:29;56.89;41.67;68.65;;
77133;Laerm;26708;50.304;19.028;2023-04-05T11:08:41;57.42;43.77;68.41;;
77133;Laerm;26708;50.304;19.028;2023-04-05T11:10:52;56.87;43.87;68.10;;
77133;Laerm;26708;50.304;19.028;2023-04-05T11:13:07;57.98;42.54;69.34;;
77133;Laerm;26708;50.304;19.028;2023-04-05T11:15:30;59.25;40.80;73.59;;
77133;Laerm;26708;50.304;19.028;2023-04-05T11:17:35;59.48;42.94;72.00;;
77133;Laerm;26708;50.304;19.028;2023-04-05T11:19:50;59.74;42.42;78.80;;
77133;Laerm;26708;50.304;19.028;2023-04-05T11:22:00;57.07;42.20;69.61;;
77133;Laerm;26708;50.304;19.028;2023-04-05T11:24:07;56.90;42.84;70.01;;
77133;Laerm;26708;50.304;19.028;2023-04-05T11:26:16;52.13;40.81;67.53;;
77133;Laerm;26708;50.304;19.028;2023-04-05T11:28:29;55.87;40.91;69.64;;
77133;Laerm;26708;50.304;19.028;2023-04-05T11:30:47;58.10;43.49;68.31;;
77133;Laerm;26708;50.304;19.028;2023-04-05T11:32:52;57.41;44.32;71.06;;
77133;Laerm;26708;50.304;19.028;2023-04-05T11:35:00;58.82;42.85;69.45;;
77133;Laerm;26708;50.304;19.028;2023-04-05T11:37:08;58.08;44.86;72.31;;
77133;Laerm;26708;50.304;19.028;2023-04-05T11:39:25;57.72;42.34;70.45;;
77133;Laerm;26708;50.304;19.028;2023-04-05T11:41:35;53.55;41.08;68.61;;
77133;Laerm;26708;50.304;19.028;2023-04-05T11:43:40;56.70;41.41;72.23;;
77133;Laerm;26708;50.304;19.028;2023-04-05T11:45:45;56.15;41.06;67.32;;
77133;Laerm;26708;50.304;19.028;2023-04-05T11:47:51;56.26;42.32;70.35;;
77133;Laerm;26708;50.304;19.028;2023-04-05T11:49:56;57.58;41.79;68.07;;
77133;Laerm;26708;50.304;19.028;2023-04-05T11:52:11;54.56;42.25;66.50;;
77133;Laerm;26708;50.304;19.028;2023-04-05T11:54:38;57.18;42.43;68.45;;
77133;Laerm;26708;50.304;19.028;2023-04-05T11:56:52;57.63;43.01;79.40;;
77133;Laerm;26708;50.304;19.028;2023-04-05T11:58:57;56.38;42.39;68.59;;